sensor_id;sensor_type;location;lat;lon;timestamp;P1;durP1;ratioP1;P2;durP2;ratioP2
10005;SDS011;5042;42.626;23.382;2022-12-07T00:00:17;31.90;;;19.63;;
10005;SDS011;5042;42.626;23.382;2022-12-07T00:02:44;32.50;;;18.03;;
10005;SDS011;5042;42.626;23.382;2022-12-07T00:05:11;28.20;;;18.73;;
10005;SDS011;5042;42.626;23.382;2022-12-07T00:07:38;28.53;;;18.20;;
10005;SDS011;5042;42.626;23.382;2022-12-07T00:10:05;30.40;;;18.00;;
10005;SDS011;5042;42.626;23.382;2022-12-07T00:12:33;30.67;;;17.37;;
10005;SDS011;5042;42.626;23.382;2022-12-07T00:15:01;29.80;;;17.67;;
10005;SDS011;5042;42.626;23.382;2022-12-07T00:17:27;24.97;;;16.23;;
10005;SDS011;5042;42.626;23.382;2022-12-07T00:19:54;29.83;;;15.97;;
10005;SDS011;5042;42.626;23.382;2022-12-07T00:22:21;25.07;;;15.20;;
10005;SDS011;5042;42.626;23.382;2022-12-07T00:24:48;23.77;;;14.03;;
10005;SDS011;5042;42.626;23.382;2022-12-07T00:27:14;22.10;;;13.47;;
10005;SDS011;5042;42.626;23.382;2022-12-07T00:29:41;21.67;;;14.17;;
10005;SDS011;5042;42.626;23.382;2022-12-07T00:32:09;22.80;;;13.30;;
10005;SDS011;5042;42.626;23.382;2022-12-07T00:34:36;24.27;;;12.80;;
10005;SDS011;5042;42.626;23.382;2022-12-07T00:37:03;21.93;;;13.03;;
10005;SDS011;5042;42.626;23.382;2022-12-07T00:39:29;20.07;;;11.77;;
10005;SDS011;5042;42.626;23.382;2022-12-07T00:41:56;20.93;;;12.13;;
10005;SDS011;5042;42.626;23.382;2022-12-07T00:44:23;22.80;;;13.10;;
10005;SDS011;5042;42.626;23.382;2022-12-07T00:46:50;19.67;;;12.30;;
10005;SDS011;5042;42.626;23.382;2022-12-07T00:49:18;19.47;;;11.93;;
10005;SDS011;5042;42.626;23.382;2022-12-07T00:51:45;16.73;;;10.90;;
10005;SDS011;5042;42.626;23.382;2022-12-07T00:54:14;21.40;;;11.87;;
10005;SDS011;5042;42.626;23.382;2022-12-07T00:56:41;20.43;;;12.27;;
10005;SDS011;5042;42.626;23.382;2022-12-07T00:59:10;18.50;;;12.03;;
10005;SDS011;5042;42.626;23.382;2022-12-07T01:01:39;19.53;;;12.37;;
10005;SDS011;5042;42.626;23.382;2022-12-07T01:04:05;17.80;;;9.73;;
10005;SDS011;5042;42.626;23.382;2022-12-07T01:06:34;16.87;;;10.83;;
10005;SDS011;5042;42.626;23.382;2022-12-07T01:09:01;18.13;;;11.33;;
10005;SDS011;5042;42.626;23.382;2022-12-07T01:11:30;17.70;;;11.67;;
10005;SDS011;5042;42.626;23.382;2022-12-07T01:13:57;18.07;;;11.77;;
10005;SDS011;5042;42.626;23.382;2022-12-07T01:16:26;19.77;;;12.30;;
10005;SDS011;5042;42.626;23.382;2022-12-07T01:18:55;24.97;;;13.70;;
10005;SDS011;5042;42.626;23.382;2022-12-07T01:21:24;22.00;;;13.43;;
10005;SDS011;5042;42.626;23.382;2022-12-07T01:23:53;22.87;;;13.93;;
10005;SDS011;5042;42.626;23.382;2022-12-07T01:26:21;22.70;;;13.10;;
10005;SDS011;5042;42.626;23.382;2022-12-07T01:28:49;24.93;;;14.67;;
10005;SDS011;5042;42.626;23.382;2022-12-07T01:31:17;25.27;;;15.20;;
10005;SDS011;5042;42.626;23.382;2022-12-07T01:33:47;24.93;;;14.00;;
10005;SDS011;5042;42.626;23.382;2022-12-07T01:36:15;26.17;;;14.30;;
10005;SDS011;5042;42.626;23.382;2022-12-07T01:38:45;21.67;;;12.83;;
10005;SDS011;5042;42.626;23.382;2022-12-07T01:41:14;26.73;;;14.07;;
10005;SDS011;5042;42.626;23.382;2022-12-07T01:46:40;22.87;;;14.20;;
10005;SDS011;5042;42.626;23.382;2022-12-07T01:49:10;25.10;;;13.87;;
10005;SDS011;5042;42.626;23.382;2022-12-07T01:51:40;27.17;;;14.70;;
10005;SDS011;5042;42.626;23.382;2022-12-07T01:54:09;24.87;;;15.70;;
10005;SDS011;5042;42.626;23.382;2022-12-07T01:56:40;27.03;;;16.13;;
10005;SDS011;5042;42.626;23.382;2022-12-07T01:59:11;27.53;;;16.30;;
10005;SDS011;5042;42.626;23.382;2022-12-07T02:01:38;27.37;;;15.50;;
10005;SDS011;5042;42.626;23.382;2022-12-07T02:04:05;31.23;;;16.13;;
10005;SDS011;5042;42.626;23.382;2022-12-07T02:06:32;27.70;;;15.33;;
10005;SDS011;5042;42.626;23.382;2022-12-07T02:09:01;28.40;;;15.63;;
10005;SDS011;5042;42.626;23.382;2022-12-07T02:11:28;26.47;;;15.80;;
10005;SDS011;5042;42.626;23.382;2022-12-07T02:13:57;27.27;;;15.57;;
10005;SDS011;5042;42.626;23.382;2022-12-07T02:16:25;25.63;;;16.03;;
10005;SDS011;5042;42.626;23.382;2022-12-07T02:19:03;27.53;;;16.00;;
10005;SDS011;5042;42.626;23.382;2022-12-07T02:21:46;26.70;;;16.17;;
10005;SDS011;5042;42.626;23.382;2022-12-07T02:27:22;28.43;;;16.77;;
10005;SDS011;5042;42.626;23.382;2022-12-07T02:30:04;24.37;;;15.97;;
10005;SDS011;5042;42.626;23.382;2022-12-07T02:32:36;30.17;;;17.57;;
10005;SDS011;5042;42.626;23.382;2022-12-07T02:35:11;26.13;;;15.63;;
10005;SDS011;5042;42.626;23.382;2022-12-07T02:37:42;26.93;;;16.47;;
10005;SDS011;5042;42.626;23.382;2022-12-07T02:40:19;26.07;;;16.43;;
10005;SDS011;5042;42.626;23.382;2022-12-07T02:42:52;25.97;;;16.27;;
10005;SDS011;5042;42.626;23.382;2022-12-07T02:45:25;26.70;;;15.53;;
10005;SDS011;5042;42.626;23.382;2022-12-07T02:47:57;28.57;;;16.30;;
10005;SDS011;5042;42.626;23.382;2022-12-07T02:50:26;27.00;;;16.47;;
10005;SDS011;5042;42.626;23.382;2022-12-07T02:52:54;25.33;;;15.43;;
10005;SDS011;5042;42.626;23.382;2022-12-07T02:55:22;23.07;;;14.77;;
10005;SDS011;5042;42.626;23.382;2022-12-07T02:57:54;28.90;;;16.03;;
10005;SDS011;5042;42.626;23.382;2022-12-07T03:00:34;26.37;;;14.53;;
10005;SDS011;5042;42.626;23.382;2022-12-07T03:03:12;29.13;;;15.73;;
10005;SDS011;5042;42.626;23.382;2022-12-07T03:05:51;25.50;;;14.57;;
10005;SDS011;5042;42.626;23.382;2022-12-07T03:08:29;26.63;;;15.37;;
10005;SDS011;5042;42.626;23.382;2022-12-07T03:11:04;25.40;;;15.33;;
10005;SDS011;5042;42.626;23.382;2022-12-07T03:13:36;24.60;;;14.53;;
10005;SDS011;5042;42.626;23.382;2022-12-07T03:16:10;25.57;;;14.20;;
10005;SDS011;5042;42.626;23.382;2022-12-07T03:18:44;24.70;;;14.27;;
10005;SDS011;5042;42.626;23.382;2022-12-07T03:21:15;23.67;;;15.20;;
10005;SDS011;5042;42.626;23.382;2022-12-07T03:23:45;28.07;;;15.43;;
10005;SDS011;5042;42.626;23.382;2022-12-07T03:26:15;26.20;;;15.47;;
10005;SDS011;5042;42.626;23.382;2022-12-07T03:28:47;25.70;;;14.83;;
10005;SDS011;5042;42.626;23.382;2022-12-07T03:31:21;24.10;;;15.10;;
10005;SDS011;5042;42.626;23.382;2022-12-07T03:33:51;23.20;;;14.73;;
10005;SDS011;5042;42.626;23.382;2022-12-07T03:36:23;24.07;;;14.33;;
10005;SDS011;5042;42.626;23.382;2022-12-07T03:38:57;21.13;;;12.90;;
10005;SDS011;5042;42.626;23.382;2022-12-07T03:41:30;22.30;;;13.03;;
10005;SDS011;5042;42.626;23.382;2022-12-07T03:43:59;25.03;;;13.80;;
10005;SDS011;5042;42.626;23.382;2022-12-07T03:46:29;22.70;;;13.87;;
10005;SDS011;5042;42.626;23.382;2022-12-07T03:49:04;23.97;;;14.07;;
10005;SDS011;5042;42.626;23.382;2022-12-07T03:51:36;24.13;;;13.47;;
10005;SDS011;5042;42.626;23.382;2022-12-07T03:54:09;21.80;;;13.37;;
10005;SDS011;5042;42.626;23.382;2022-12-07T03:56:40;24.40;;;13.43;;
10005;SDS011;5042;42.626;23.382;2022-12-07T03:59:09;21.93;;;13.53;;
10005;SDS011;5042;42.626;23.382;2022-12-07T04:01:42;19.73;;;13.07;;
10005;SDS011;5042;42.626;23.382;2022-12-07T04:04:09;23.53;;;13.83;;
10005;SDS011;5042;42.626;23.382;2022-12-07T04:06:36;20.37;;;13.93;;
10005;SDS011;5042;42.626;23.382;2022-12-07T04:09:03;25.40;;;14.93;;
10005;SDS011;5042;42.626;23.382;2022-12-07T04:11:29;23.47;;;13.43;;
10005;SDS011;5042;42.626;23.382;2022-12-07T04:13:56;22.70;;;13.97;;
10005;SDS011;5042;42.626;23.382;2022-12-07T04:16:41;22.47;;;13.97;;
10005;SDS011;5042;42.626;23.382;2022-12-07T04:19:08;24.60;;;14.13;;
10005;SDS011;5042;42.626;23.382;2022-12-07T04:21:35;26.37;;;14.53;;
10005;SDS011;5042;42.626;23.382;2022-12-07T04:24:02;23.90;;;14.53;;
10005;SDS011;5042;42.626;23.382;2022-12-07T04:26:29;26.37;;;14.50;;
10005;SDS011;5042;42.626;23.382;2022-12-07T04:28:55;28.23;;;14.60;;
10005;SDS011;5042;42.626;23.382;2022-12-07T04:31:22;28.70;;;15.53;;
10005;SDS011;5042;42.626;23.382;2022-12-07T04:33:50;25.60;;;14.20;;
10005;SDS011;5042;42.626;23.382;2022-12-07T04:36:17;22.83;;;14.37;;
10005;SDS011;5042;42.626;23.382;2022-12-07T04:38:44;22.73;;;13.47;;
10005;SDS011;5042;42.626;23.382;2022-12-07T04:41:11;22.83;;;12.83;;
10005;SDS011;5042;42.626;23.382;2022-12-07T04:43:38;22.27;;;13.20;;
10005;SDS011;5042;42.626;23.382;2022-12-07T04:46:05;22.37;;;13.30;;
10005;SDS011;5042;42.626;23.382;2022-12-07T04:48:32;21.40;;;12.70;;
10005;SDS011;5042;42.626;23.382;2022-12-07T04:51:00;22.77;;;13.17;;
10005;SDS011;5042;42.626;23.382;2022-12-07T04:53:28;19.97;;;12.93;;
10005;SDS011;5042;42.626;23.382;2022-12-07T04:55:55;26.67;;;15.53;;
10005;SDS011;5042;42.626;23.382;2022-12-07T04:58:21;24.33;;;13.50;;
10005;SDS011;5042;42.626;23.382;2022-12-07T05:00:48;23.77;;;13.03;;
10005;SDS011;5042;42.626;23.382;2022-12-07T05:03:15;20.07;;;13.07;;
10005;SDS011;5042;42.626;23.382;2022-12-07T05:05:42;21.50;;;13.03;;
10005;SDS011;5042;42.626;23.382;2022-12-07T05:08:10;20.90;;;13.20;;
10005;SDS011;5042;42.626;23.382;2022-12-07T05:10:36;22.73;;;13.13;;
10005;SDS011;5042;42.626;23.382;2022-12-07T05:13:03;22.73;;;12.40;;
10005;SDS011;5042;42.626;23.382;2022-12-07T05:15:30;19.70;;;13.20;;
10005;SDS011;5042;42.626;23.382;2022-12-07T05:17:57;24.07;;;13.47;;
10005;SDS011;5042;42.626;23.382;2022-12-07T05:20:23;25.67;;;14.10;;
10005;SDS011;5042;42.626;23.382;2022-12-07T05:22:50;23.60;;;13.03;;
10005;SDS011;5042;42.626;23.382;2022-12-07T05:25:18;19.57;;;12.87;;
10005;SDS011;5042;42.626;23.382;2022-12-07T05:27:45;22.57;;;12.43;;
10005;SDS011;5042;42.626;23.382;2022-12-07T05:30:12;21.87;;;12.50;;
10005;SDS011;5042;42.626;23.382;2022-12-07T05:32:39;19.27;;;12.40;;
10005;SDS011;5042;42.626;23.382;2022-12-07T05:35:06;23.00;;;13.23;;
10005;SDS011;5042;42.626;23.382;2022-12-07T05:37:33;20.73;;;13.70;;
10005;SDS011;5042;42.626;23.382;2022-12-07T05:40:00;21.97;;;13.50;;
10005;SDS011;5042;42.626;23.382;2022-12-07T05:42:28;22.50;;;13.00;;
10005;SDS011;5042;42.626;23.382;2022-12-07T05:44:55;22.00;;;13.73;;
10005;SDS011;5042;42.626;23.382;2022-12-07T05:47:22;23.27;;;13.83;;
10005;SDS011;5042;42.626;23.382;2022-12-07T05:49:49;23.17;;;13.40;;
10005;SDS011;5042;42.626;23.382;2022-12-07T05:52:15;25.07;;;13.60;;
10005;SDS011;5042;42.626;23.382;2022-12-07T05:54:42;23.50;;;14.63;;
10005;SDS011;5042;42.626;23.382;2022-12-07T05:57:09;21.63;;;13.57;;
10005;SDS011;5042;42.626;23.382;2022-12-07T05:59:37;23.63;;;14.40;;
10005;SDS011;5042;42.626;23.382;2022-12-07T06:02:04;27.63;;;15.30;;
10005;SDS011;5042;42.626;23.382;2022-12-07T06:04:35;21.67;;;14.53;;
10005;SDS011;5042;42.626;23.382;2022-12-07T06:07:03;25.30;;;14.30;;
10005;SDS011;5042;42.626;23.382;2022-12-07T06:09:30;31.03;;;15.10;;
10005;SDS011;5042;42.626;23.382;2022-12-07T06:11:57;25.67;;;14.43;;
10005;SDS011;5042;42.626;23.382;2022-12-07T06:14:43;26.50;;;14.90;;
10005;SDS011;5042;42.626;23.382;2022-12-07T06:17:11;27.63;;;15.53;;
10005;SDS011;5042;42.626;23.382;2022-12-07T06:19:38;23.93;;;15.20;;
10005;SDS011;5042;42.626;23.382;2022-12-07T06:22:05;27.10;;;17.13;;
10005;SDS011;5042;42.626;23.382;2022-12-07T06:24:32;25.60;;;15.40;;
10005;SDS011;5042;42.626;23.382;2022-12-07T06:26:59;25.47;;;14.50;;
10005;SDS011;5042;42.626;23.382;2022-12-07T06:29:26;26.37;;;15.73;;
10005;SDS011;5042;42.626;23.382;2022-12-07T06:31:54;23.77;;;15.20;;
10005;SDS011;5042;42.626;23.382;2022-12-07T06:34:21;24.27;;;15.37;;
10005;SDS011;5042;42.626;23.382;2022-12-07T06:36:49;29.43;;;16.27;;
10005;SDS011;5042;42.626;23.382;2022-12-07T06:39:18;24.77;;;16.23;;
10005;SDS011;5042;42.626;23.382;2022-12-07T06:41:45;24.77;;;15.70;;
10005;SDS011;5042;42.626;23.382;2022-12-07T06:44:12;24.53;;;14.70;;
10005;SDS011;5042;42.626;23.382;2022-12-07T06:46:39;26.73;;;16.07;;
10005;SDS011;5042;42.626;23.382;2022-12-07T06:49:07;29.77;;;15.53;;
10005;SDS011;5042;42.626;23.382;2022-12-07T06:51:34;25.67;;;15.30;;
10005;SDS011;5042;42.626;23.382;2022-12-07T06:54:01;24.33;;;15.07;;
10005;SDS011;5042;42.626;23.382;2022-12-07T06:56:28;25.07;;;15.77;;
10005;SDS011;5042;42.626;23.382;2022-12-07T06:58:55;28.30;;;16.47;;
10005;SDS011;5042;42.626;23.382;2022-12-07T07:01:22;29.10;;;16.23;;
10005;SDS011;5042;42.626;23.382;2022-12-07T07:03:49;26.67;;;15.80;;
10005;SDS011;5042;42.626;23.382;2022-12-07T07:06:17;29.40;;;16.40;;
10005;SDS011;5042;42.626;23.382;2022-12-07T07:08:44;28.03;;;15.63;;
10005;SDS011;5042;42.626;23.382;2022-12-07T07:11:10;25.27;;;14.77;;
10005;SDS011;5042;42.626;23.382;2022-12-07T07:13:37;26.03;;;13.97;;
10005;SDS011;5042;42.626;23.382;2022-12-07T07:16:05;25.03;;;15.37;;
10005;SDS011;5042;42.626;23.382;2022-12-07T07:18:33;27.20;;;15.43;;
10005;SDS011;5042;42.626;23.382;2022-12-07T07:21:00;25.43;;;15.57;;
10005;SDS011;5042;42.626;23.382;2022-12-07T07:23:28;27.33;;;15.70;;
10005;SDS011;5042;42.626;23.382;2022-12-07T07:25:55;28.80;;;15.77;;
10005;SDS011;5042;42.626;23.382;2022-12-07T07:28:22;29.83;;;15.33;;
10005;SDS011;5042;42.626;23.382;2022-12-07T07:30:49;24.00;;;14.87;;
10005;SDS011;5042;42.626;23.382;2022-12-07T07:33:16;29.23;;;15.07;;
10005;SDS011;5042;42.626;23.382;2022-12-07T07:35:43;31.73;;;15.57;;
10005;SDS011;5042;42.626;23.382;2022-12-07T07:38:09;31.37;;;15.13;;
10005;SDS011;5042;42.626;23.382;2022-12-07T07:40:37;23.43;;;14.53;;
10005;SDS011;5042;42.626;23.382;2022-12-07T07:43:04;25.50;;;15.37;;
10005;SDS011;5042;42.626;23.382;2022-12-07T07:45:31;24.90;;;14.20;;
10005;SDS011;5042;42.626;23.382;2022-12-07T07:47:58;24.93;;;14.50;;
10005;SDS011;5042;42.626;23.382;2022-12-07T07:50:24;25.20;;;14.07;;
10005;SDS011;5042;42.626;23.382;2022-12-07T07:52:51;25.73;;;13.77;;
10005;SDS011;5042;42.626;23.382;2022-12-07T07:55:18;23.80;;;13.17;;
10005;SDS011;5042;42.626;23.382;2022-12-07T07:57:46;26.83;;;14.47;;
10005;SDS011;5042;42.626;23.382;2022-12-07T08:00:14;25.57;;;14.27;;
10005;SDS011;5042;42.626;23.382;2022-12-07T08:02:41;29.90;;;15.30;;
10005;SDS011;5042;42.626;23.382;2022-12-07T08:05:09;30.50;;;15.33;;
10005;SDS011;5042;42.626;23.382;2022-12-07T08:07:36;22.90;;;14.20;;
10005;SDS011;5042;42.626;23.382;2022-12-07T08:10:04;22.23;;;12.83;;
10005;SDS011;5042;42.626;23.382;2022-12-07T08:12:31;26.53;;;14.10;;
10005;SDS011;5042;42.626;23.382;2022-12-07T08:15:03;24.83;;;13.67;;
10005;SDS011;5042;42.626;23.382;2022-12-07T08:17:31;25.17;;;14.07;;
10005;SDS011;5042;42.626;23.382;2022-12-07T08:19:59;23.17;;;13.93;;
10005;SDS011;5042;42.626;23.382;2022-12-07T08:22:25;23.50;;;13.60;;
10005;SDS011;5042;42.626;23.382;2022-12-07T08:24:52;21.77;;;13.10;;
10005;SDS011;5042;42.626;23.382;2022-12-07T08:27:19;25.97;;;13.60;;
10005;SDS011;5042;42.626;23.382;2022-12-07T08:29:46;24.50;;;12.83;;
10005;SDS011;5042;42.626;23.382;2022-12-07T08:32:14;21.70;;;12.27;;
10005;SDS011;5042;42.626;23.382;2022-12-07T08:34:40;20.03;;;12.60;;
10005;SDS011;5042;42.626;23.382;2022-12-07T08:37:07;22.13;;;12.50;;
10005;SDS011;5042;42.626;23.382;2022-12-07T08:39:34;20.50;;;12.43;;
10005;SDS011;5042;42.626;23.382;2022-12-07T08:42:01;24.03;;;13.13;;
10005;SDS011;5042;42.626;23.382;2022-12-07T08:44:27;22.87;;;13.93;;
10005;SDS011;5042;42.626;23.382;2022-12-07T08:46:55;23.03;;;12.63;;
10005;SDS011;5042;42.626;23.382;2022-12-07T08:49:27;24.40;;;13.13;;
10005;SDS011;5042;42.626;23.382;2022-12-07T08:51:59;24.23;;;13.83;;
10005;SDS011;5042;42.626;23.382;2022-12-07T08:54:26;29.40;;;14.43;;
10005;SDS011;5042;42.626;23.382;2022-12-07T08:56:54;22.50;;;13.23;;
10005;SDS011;5042;42.626;23.382;2022-12-07T08:59:22;20.40;;;12.37;;
10005;SDS011;5042;42.626;23.382;2022-12-07T09:01:49;21.13;;;12.47;;
10005;SDS011;5042;42.626;23.382;2022-12-07T09:04:16;22.77;;;13.17;;
10005;SDS011;5042;42.626;23.382;2022-12-07T09:06:44;24.70;;;12.70;;
10005;SDS011;5042;42.626;23.382;2022-12-07T09:09:11;23.27;;;13.60;;
10005;SDS011;5042;42.626;23.382;2022-12-07T09:11:40;20.20;;;12.83;;
10005;SDS011;5042;42.626;23.382;2022-12-07T09:14:07;21.07;;;12.53;;
10005;SDS011;5042;42.626;23.382;2022-12-07T09:16:33;27.67;;;12.97;;
10005;SDS011;5042;42.626;23.382;2022-12-07T09:19:00;21.57;;;12.07;;
10005;SDS011;5042;42.626;23.382;2022-12-07T09:21:27;20.07;;;11.63;;
10005;SDS011;5042;42.626;23.382;2022-12-07T09:23:55;25.13;;;13.33;;
10005;SDS011;5042;42.626;23.382;2022-12-07T09:26:22;21.53;;;12.00;;
10005;SDS011;5042;42.626;23.382;2022-12-07T09:28:49;26.87;;;14.10;;
10005;SDS011;5042;42.626;23.382;2022-12-07T09:31:15;19.97;;;11.83;;
10005;SDS011;5042;42.626;23.382;2022-12-07T09:33:42;20.90;;;12.07;;
10005;SDS011;5042;42.626;23.382;2022-12-07T09:36:09;21.93;;;12.00;;
10005;SDS011;5042;42.626;23.382;2022-12-07T09:38:36;20.37;;;11.33;;
10005;SDS011;5042;42.626;23.382;2022-12-07T09:41:07;18.00;;;11.07;;
10005;SDS011;5042;42.626;23.382;2022-12-07T09:43:34;20.70;;;11.63;;
10005;SDS011;5042;42.626;23.382;2022-12-07T09:46:03;23.53;;;12.17;;
10005;SDS011;5042;42.626;23.382;2022-12-07T09:48:31;26.07;;;15.27;;
10005;SDS011;5042;42.626;23.382;2022-12-07T09:51:01;28.70;;;13.67;;
10005;SDS011;5042;42.626;23.382;2022-12-07T09:53:29;25.83;;;12.77;;
10005;SDS011;5042;42.626;23.382;2022-12-07T09:55:59;20.63;;;11.60;;
10005;SDS011;5042;42.626;23.382;2022-12-07T09:58:29;22.47;;;12.67;;
10005;SDS011;5042;42.626;23.382;2022-12-07T10:00:58;20.97;;;11.90;;
10005;SDS011;5042;42.626;23.382;2022-12-07T10:03:27;25.47;;;12.30;;
10005;SDS011;5042;42.626;23.382;2022-12-07T10:05:54;21.57;;;12.10;;
10005;SDS011;5042;42.626;23.382;2022-12-07T10:08:24;20.63;;;12.07;;
10005;SDS011;5042;42.626;23.382;2022-12-07T10:10:52;18.97;;;11.77;;
10005;SDS011;5042;42.626;23.382;2022-12-07T10:13:21;25.37;;;12.70;;
10005;SDS011;5042;42.626;23.382;2022-12-07T10:15:51;21.40;;;11.87;;
10005;SDS011;5042;42.626;23.382;2022-12-07T10:18:21;22.00;;;11.47;;
10005;SDS011;5042;42.626;23.382;2022-12-07T10:21:09;21.67;;;11.87;;
10005;SDS011;5042;42.626;23.382;2022-12-07T10:23:39;20.57;;;11.30;;
10005;SDS011;5042;42.626;23.382;2022-12-07T10:26:20;17.87;;;10.40;;
10005;SDS011;5042;42.626;23.382;2022-12-07T10:28:53;20.37;;;10.17;;
10005;SDS011;5042;42.626;23.382;2022-12-07T10:31:22;20.73;;;10.17;;
10005;SDS011;5042;42.626;23.382;2022-12-07T10:33:50;19.70;;;11.17;;
10005;SDS011;5042;42.626;23.382;2022-12-07T10:36:20;21.13;;;11.33;;
10005;SDS011;5042;42.626;23.382;2022-12-07T10:38:50;14.80;;;9.23;;
10005;SDS011;5042;42.626;23.382;2022-12-07T10:41:18;17.00;;;10.63;;
10005;SDS011;5042;42.626;23.382;2022-12-07T10:43:46;21.57;;;9.33;;
10005;SDS011;5042;42.626;23.382;2022-12-07T10:49:35;17.47;;;9.57;;
10005;SDS011;5042;42.626;23.382;2022-12-07T10:52:23;17.90;;;9.73;;
10005;SDS011;5042;42.626;23.382;2022-12-07T10:55:13;14.83;;;9.07;;
10005;SDS011;5042;42.626;23.382;2022-12-07T11:00:51;17.53;;;10.03;;
10005;SDS011;5042;42.626;23.382;2022-12-07T11:03:27;19.13;;;9.90;;
10005;SDS011;5042;42.626;23.382;2022-12-07T11:06:07;16.33;;;9.87;;
10005;SDS011;5042;42.626;23.382;2022-12-07T11:08:44;17.30;;;9.83;;
10005;SDS011;5042;42.626;23.382;2022-12-07T11:11:24;17.20;;;10.73;;
10005;SDS011;5042;42.626;23.382;2022-12-07T11:14:01;17.97;;;10.47;;
10005;SDS011;5042;42.626;23.382;2022-12-07T11:16:38;18.40;;;10.07;;
10005;SDS011;5042;42.626;23.382;2022-12-07T11:19:19;16.03;;;10.53;;
10005;SDS011;5042;42.626;23.382;2022-12-07T11:21:59;17.60;;;10.77;;
10005;SDS011;5042;42.626;23.382;2022-12-07T11:24:32;17.93;;;11.20;;
10005;SDS011;5042;42.626;23.382;2022-12-07T11:27:09;19.10;;;10.83;;
10005;SDS011;5042;42.626;23.382;2022-12-07T11:29:51;23.03;;;11.10;;
10005;SDS011;5042;42.626;23.382;2022-12-07T11:32:38;24.37;;;13.50;;
10005;SDS011;5042;42.626;23.382;2022-12-07T11:35:16;21.90;;;12.50;;
10005;SDS011;5042;42.626;23.382;2022-12-07T11:37:51;21.93;;;12.10;;
10005;SDS011;5042;42.626;23.382;2022-12-07T11:40:24;23.53;;;12.83;;
10005;SDS011;5042;42.626;23.382;2022-12-07T11:42:55;21.03;;;11.97;;
10005;SDS011;5042;42.626;23.382;2022-12-07T11:45:29;18.63;;;11.90;;
10005;SDS011;5042;42.626;23.382;2022-12-07T11:47:59;22.37;;;12.00;;
10005;SDS011;5042;42.626;23.382;2022-12-07T11:50:32;21.57;;;12.27;;
10005;SDS011;5042;42.626;23.382;2022-12-07T11:53:02;20.20;;;11.37;;
10005;SDS011;5042;42.626;23.382;2022-12-07T11:55:39;20.27;;;11.47;;
10005;SDS011;5042;42.626;23.382;2022-12-07T11:58:17;18.77;;;11.90;;
10005;SDS011;5042;42.626;23.382;2022-12-07T12:00:49;20.03;;;11.20;;
10005;SDS011;5042;42.626;23.382;2022-12-07T12:03:23;19.07;;;11.57;;
10005;SDS011;5042;42.626;23.382;2022-12-07T12:05:58;20.43;;;11.13;;
10005;SDS011;5042;42.626;23.382;2022-12-07T12:08:26;17.73;;;11.43;;
10005;SDS011;5042;42.626;23.382;2022-12-07T12:10:55;20.67;;;11.80;;
10005;SDS011;5042;42.626;23.382;2022-12-07T12:13:45;19.03;;;12.00;;
10005;SDS011;5042;42.626;23.382;2022-12-07T12:16:41;18.93;;;11.07;;
10005;SDS011;5042;42.626;23.382;2022-12-07T12:19:26;16.43;;;10.30;;
10005;SDS011;5042;42.626;23.382;2022-12-07T12:22:04;15.53;;;10.57;;
10005;SDS011;5042;42.626;23.382;2022-12-07T12:24:38;21.37;;;11.23;;
10005;SDS011;5042;42.626;23.382;2022-12-07T12:27:07;21.60;;;11.53;;
10005;SDS011;5042;42.626;23.382;2022-12-07T12:29:37;16.73;;;10.57;;
10005;SDS011;5042;42.626;23.382;2022-12-07T12:32:12;22.70;;;10.67;;
10005;SDS011;5042;42.626;23.382;2022-12-07T12:34:57;21.20;;;10.73;;
10005;SDS011;5042;42.626;23.382;2022-12-07T12:37:40;19.10;;;11.10;;
10005;SDS011;5042;42.626;23.382;2022-12-07T12:40:37;18.93;;;10.93;;
10005;SDS011;5042;42.626;23.382;2022-12-07T12:43:27;19.03;;;11.30;;
10005;SDS011;5042;42.626;23.382;2022-12-07T12:55:15;17.90;;;10.63;;
10005;SDS011;5042;42.626;23.382;2022-12-07T13:00:48;20.53;;;11.40;;
10005;SDS011;5042;42.626;23.382;2022-12-07T13:04:02;21.90;;;9.97;;
10005;SDS011;5042;42.626;23.382;2022-12-07T13:06:40;19.80;;;11.23;;
10005;SDS011;5042;42.626;23.382;2022-12-07T13:09:16;19.23;;;11.10;;
10005;SDS011;5042;42.626;23.382;2022-12-07T13:11:49;19.10;;;10.87;;
10005;SDS011;5042;42.626;23.382;2022-12-07T13:17:09;17.17;;;10.70;;
10005;SDS011;5042;42.626;23.382;2022-12-07T13:25:29;15.90;;;9.97;;
10005;SDS011;5042;42.626;23.382;2022-12-07T13:28:07;14.23;;;8.93;;
10005;SDS011;5042;42.626;23.382;2022-12-07T13:30:43;13.27;;;8.13;;
10005;SDS011;5042;42.626;23.382;2022-12-07T13:33:16;14.20;;;8.40;;
10005;SDS011;5042;42.626;23.382;2022-12-07T13:35:44;11.30;;;7.97;;
10005;SDS011;5042;42.626;23.382;2022-12-07T13:41:03;14.90;;;7.87;;
10005;SDS011;5042;42.626;23.382;2022-12-07T13:43:43;13.83;;;8.13;;
10005;SDS011;5042;42.626;23.382;2022-12-07T13:46:11;15.03;;;8.23;;
10005;SDS011;5042;42.626;23.382;2022-12-07T13:48:43;12.27;;;8.00;;
10005;SDS011;5042;42.626;23.382;2022-12-07T13:51:16;18.67;;;9.27;;
10005;SDS011;5042;42.626;23.382;2022-12-07T13:53:48;17.90;;;9.27;;
10005;SDS011;5042;42.626;23.382;2022-12-07T13:56:17;15.87;;;8.77;;
10005;SDS011;5042;42.626;23.382;2022-12-07T13:58:47;17.60;;;9.30;;
10005;SDS011;5042;42.626;23.382;2022-12-07T14:01:15;15.73;;;8.87;;
10005;SDS011;5042;42.626;23.382;2022-12-07T14:03:43;13.83;;;8.80;;
10005;SDS011;5042;42.626;23.382;2022-12-07T14:06:14;14.87;;;9.40;;
10005;SDS011;5042;42.626;23.382;2022-12-07T14:08:50;13.40;;;8.97;;
10005;SDS011;5042;42.626;23.382;2022-12-07T14:11:31;19.07;;;9.20;;
10005;SDS011;5042;42.626;23.382;2022-12-07T14:14:00;15.73;;;8.70;;
10005;SDS011;5042;42.626;23.382;2022-12-07T14:16:30;14.50;;;7.50;;
10005;SDS011;5042;42.626;23.382;2022-12-07T14:18:59;13.03;;;7.73;;
10005;SDS011;5042;42.626;23.382;2022-12-07T14:21:28;13.07;;;7.50;;
10005;SDS011;5042;42.626;23.382;2022-12-07T14:24:08;16.47;;;9.37;;
10005;SDS011;5042;42.626;23.382;2022-12-07T14:26:42;14.10;;;8.60;;
10005;SDS011;5042;42.626;23.382;2022-12-07T14:29:21;13.60;;;8.40;;
10005;SDS011;5042;42.626;23.382;2022-12-07T14:31:55;13.83;;;9.37;;
10005;SDS011;5042;42.626;23.382;2022-12-07T14:34:23;14.80;;;9.87;;
10005;SDS011;5042;42.626;23.382;2022-12-07T14:36:50;14.67;;;8.50;;
10005;SDS011;5042;42.626;23.382;2022-12-07T14:39:17;22.03;;;10.37;;
10005;SDS011;5042;42.626;23.382;2022-12-07T14:41:44;16.20;;;9.10;;
10005;SDS011;5042;42.626;23.382;2022-12-07T14:44:17;15.43;;;9.20;;
10005;SDS011;5042;42.626;23.382;2022-12-07T14:46:47;14.50;;;8.47;;
10005;SDS011;5042;42.626;23.382;2022-12-07T14:49:14;13.80;;;9.30;;
10005;SDS011;5042;42.626;23.382;2022-12-07T14:51:41;13.27;;;9.03;;
10005;SDS011;5042;42.626;23.382;2022-12-07T14:54:12;13.23;;;8.57;;
10005;SDS011;5042;42.626;23.382;2022-12-07T14:56:43;13.93;;;8.37;;
10005;SDS011;5042;42.626;23.382;2022-12-07T14:59:10;23.23;;;9.93;;
10005;SDS011;5042;42.626;23.382;2022-12-07T15:01:38;17.60;;;9.80;;
10005;SDS011;5042;42.626;23.382;2022-12-07T15:04:06;14.00;;;8.93;;
10005;SDS011;5042;42.626;23.382;2022-12-07T15:06:33;17.30;;;10.10;;
10005;SDS011;5042;42.626;23.382;2022-12-07T15:09:00;15.90;;;9.20;;
10005;SDS011;5042;42.626;23.382;2022-12-07T15:11:26;21.73;;;11.03;;
10005;SDS011;5042;42.626;23.382;2022-12-07T15:13:54;20.07;;;11.20;;
10005;SDS011;5042;42.626;23.382;2022-12-07T15:16:37;20.80;;;12.30;;